sensor_id;sensor_type;location;lat;lon;timestamp;temperature;humidity
14727;DHT22;7454;51.256;8.176;2023-07-13T00:00:44;16.60;69.60
14727;DHT22;7454;51.256;8.176;2023-07-13T00:03:09;16.60;69.80
14727;DHT22;7454;51.256;8.176;2023-07-13T00:05:39;16.60;69.70
14727;DHT22;7454;51.256;8.176;2023-07-13T00:08:05;16.60;69.80
14727;DHT22;7454;51.256;8.176;2023-07-13T00:10:31;16.50;69.70
14727;DHT22;7454;51.256;8.176;2023-07-13T00:12:57;16.30;69.70
14727;DHT22;7454;51.256;8.176;2023-07-13T00:15:23;16.40;69.70
14727;DHT22;7454;51.256;8.176;2023-07-13T00:17:51;16.40;69.70
14727;DHT22;7454;51.256;8.176;2023-07-13T00:20:17;16.30;69.70
14727;DHT22;7454;51.256;8.176;2023-07-13T00:22:43;16.40;69.70
14727;DHT22;7454;51.256;8.176;2023-07-13T00:25:12;16.40;69.70
14727;DHT22;7454;51.256;8.176;2023-07-13T00:27:37;16.30;69.70
14727;DHT22;7454;51.256;8.176;2023-07-13T00:30:03;16.30;69.70
14727;DHT22;7454;51.256;8.176;2023-07-13T00:32:30;16.30;69.70
14727;DHT22;7454;51.256;8.176;2023-07-13T00:34:58;16.20;69.50
14727;DHT22;7454;51.256;8.176;2023-07-13T00:37:25;16.30;69.50
14727;DHT22;7454;51.256;8.176;2023-07-13T00:39:51;16.40;69.50
14727;DHT22;7454;51.256;8.176;2023-07-13T00:42:17;16.40;69.70
14727;DHT22;7454;51.256;8.176;2023-07-13T00:45:05;16.30;69.70
14727;DHT22;7454;51.256;8.176;2023-07-13T00:47:41;16.30;69.70
14727;DHT22;7454;51.256;8.176;2023-07-13T00:50:10;16.30;69.80
14727;DHT22;7454;51.256;8.176;2023-07-13T00:52:40;16.20;69.90
14727;DHT22;7454;51.256;8.176;2023-07-13T00:55:07;16.20;69.80
14727;DHT22;7454;51.256;8.176;2023-07-13T00:57:34;16.10;69.70
14727;DHT22;7454;51.256;8.176;2023-07-13T01:00:01;16.10;69.70
14727;DHT22;7454;51.256;8.176;2023-07-13T01:02:30;15.90;69.70
14727;DHT22;7454;51.256;8.176;2023-07-13T01:04:56;16.00;69.70
14727;DHT22;7454;51.256;8.176;2023-07-13T01:07:21;16.10;69.70
14727;DHT22;7454;51.256;8.176;2023-07-13T01:09:48;16.00;69.70
14727;DHT22;7454;51.256;8.176;2023-07-13T01:12:13;16.10;69.40
14727;DHT22;7454;51.256;8.176;2023-07-13T01:14:39;16.10;69.50
14727;DHT22;7454;51.256;8.176;2023-07-13T01:17:07;16.10;69.70
14727;DHT22;7454;51.256;8.176;2023-07-13T01:19:39;16.00;69.70
14727;DHT22;7454;51.256;8.176;2023-07-13T01:22:07;15.90;69.40
14727;DHT22;7454;51.256;8.176;2023-07-13T01:24:34;15.90;69.60
14727;DHT22;7454;51.256;8.176;2023-07-13T01:27:02;16.00;69.40
14727;DHT22;7454;51.256;8.176;2023-07-13T01:29:29;16.10;69.40
14727;DHT22;7454;51.256;8.176;2023-07-13T01:31:56;16.10;69.40
14727;DHT22;7454;51.256;8.176;2023-07-13T01:34:24;15.90;69.50
14727;DHT22;7454;51.256;8.176;2023-07-13T01:36:50;15.80;69.60
14727;DHT22;7454;51.256;8.176;2023-07-13T01:39:22;15.90;69.70
14727;DHT22;7454;51.256;8.176;2023-07-13T01:41:47;15.70;69.60
14727;DHT22;7454;51.256;8.176;2023-07-13T01:44:13;15.70;69.60
14727;DHT22;7454;51.256;8.176;2023-07-13T01:46:39;15.90;69.40
14727;DHT22;7454;51.256;8.176;2023-07-13T01:49:04;15.90;69.50
14727;DHT22;7454;51.256;8.176;2023-07-13T01:51:30;15.80;69.20
14727;DHT22;7454;51.256;8.176;2023-07-13T01:53:56;15.90;69.30
14727;DHT22;7454;51.256;8.176;2023-07-13T01:56:23;15.60;69.50
14727;DHT22;7454;51.256;8.176;2023-07-13T01:58:48;15.60;69.50
14727;DHT22;7454;51.256;8.176;2023-07-13T02:01:14;15.50;69.60
14727;DHT22;7454;51.256;8.176;2023-07-13T02:03:40;15.50;69.60
14727;DHT22;7454;51.256;8.176;2023-07-13T02:06:05;15.50;69.50
14727;DHT22;7454;51.256;8.176;2023-07-13T02:08:34;15.30;69.50
14727;DHT22;7454;51.256;8.176;2023-07-13T02:11:00;15.40;69.50
14727;DHT22;7454;51.256;8.176;2023-07-13T02:13:28;15.50;69.50
14727;DHT22;7454;51.256;8.176;2023-07-13T02:15:53;15.40;69.50
14727;DHT22;7454;51.256;8.176;2023-07-13T02:18:19;15.30;69.50
14727;DHT22;7454;51.256;8.176;2023-07-13T02:20:45;15.30;69.50
14727;DHT22;7454;51.256;8.176;2023-07-13T02:23:11;15.20;69.50
14727;DHT22;7454;51.256;8.176;2023-07-13T02:25:38;15.30;69.60
14727;DHT22;7454;51.256;8.176;2023-07-13T02:28:03;15.10;69.40
14727;DHT22;7454;51.256;8.176;2023-07-13T02:30:30;15.00;69.40
14727;DHT22;7454;51.256;8.176;2023-07-13T02:32:57;15.10;69.40
14727;DHT22;7454;51.256;8.176;2023-07-13T02:35:23;15.20;69.40
14727;DHT22;7454;51.256;8.176;2023-07-13T02:37:48;15.10;69.50
14727;DHT22;7454;51.256;8.176;2023-07-13T02:40:14;15.00;69.60
14727;DHT22;7454;51.256;8.176;2023-07-13T02:42:40;14.90;69.50
14727;DHT22;7454;51.256;8.176;2023-07-13T02:45:06;14.90;69.60
14727;DHT22;7454;51.256;8.176;2023-07-13T02:47:33;14.90;69.40
14727;DHT22;7454;51.256;8.176;2023-07-13T02:49:59;14.80;69.60
14727;DHT22;7454;51.256;8.176;2023-07-13T02:52:25;14.90;69.70
14727;DHT22;7454;51.256;8.176;2023-07-13T02:54:50;14.80;69.50
14727;DHT22;7454;51.256;8.176;2023-07-13T02:57:16;14.80;69.40
14727;DHT22;7454;51.256;8.176;2023-07-13T02:59:42;14.80;69.50
14727;DHT22;7454;51.256;8.176;2023-07-13T03:02:08;14.80;69.50
14727;DHT22;7454;51.256;8.176;2023-07-13T03:04:36;14.90;69.40
14727;DHT22;7454;51.256;8.176;2023-07-13T03:07:02;14.90;69.50
14727;DHT22;7454;51.256;8.176;2023-07-13T03:09:34;14.80;69.40
14727;DHT22;7454;51.256;8.176;2023-07-13T03:12:01;14.80;69.50
14727;DHT22;7454;51.256;8.176;2023-07-13T03:14:30;14.80;69.30
14727;DHT22;7454;51.256;8.176;2023-07-13T03:16:56;14.70;69.70
14727;DHT22;7454;51.256;8.176;2023-07-13T03:19:25;14.60;69.60
14727;DHT22;7454;51.256;8.176;2023-07-13T03:21:51;14.60;69.70
14727;DHT22;7454;51.256;8.176;2023-07-13T03:24:16;14.50;69.70
14727;DHT22;7454;51.256;8.176;2023-07-13T03:26:43;14.50;69.80
14727;DHT22;7454;51.256;8.176;2023-07-13T03:29:09;14.50;69.80
14727;DHT22;7454;51.256;8.176;2023-07-13T03:31:37;14.40;69.70
14727;DHT22;7454;51.256;8.176;2023-07-13T03:34:03;14.50;69.90
14727;DHT22;7454;51.256;8.176;2023-07-13T03:36:30;14.30;69.80
14727;DHT22;7454;51.256;8.176;2023-07-13T03:38:59;14.30;69.70
14727;DHT22;7454;51.256;8.176;2023-07-13T03:41:33;14.30;69.80
14727;DHT22;7454;51.256;8.176;2023-07-13T03:43:59;14.30;69.60
14727;DHT22;7454;51.256;8.176;2023-07-13T03:46:26;14.20;69.50
14727;DHT22;7454;51.256;8.176;2023-07-13T03:48:52;14.40;69.60
14727;DHT22;7454;51.256;8.176;2023-07-13T03:51:18;14.20;69.80
14727;DHT22;7454;51.256;8.176;2023-07-13T03:53:45;14.30;69.70
14727;DHT22;7454;51.256;8.176;2023-07-13T03:56:14;14.30;69.80
14727;DHT22;7454;51.256;8.176;2023-07-13T03:58:42;14.30;69.80
14727;DHT22;7454;51.256;8.176;2023-07-13T04:01:20;14.20;69.80
14727;DHT22;7454;51.256;8.176;2023-07-13T04:03:46;14.20;69.80
14727;DHT22;7454;51.256;8.176;2023-07-13T04:06:23;14.10;69.80
14727;DHT22;7454;51.256;8.176;2023-07-13T04:08:55;14.20;69.90
14727;DHT22;7454;51.256;8.176;2023-07-13T04:11:23;14.20;69.80
14727;DHT22;7454;51.256;8.176;2023-07-13T04:13:50;14.10;69.80
14727;DHT22;7454;51.256;8.176;2023-07-13T04:16:17;14.20;69.90
14727;DHT22;7454;51.256;8.176;2023-07-13T04:18:44;14.10;69.80
14727;DHT22;7454;51.256;8.176;2023-07-13T04:21:10;14.10;69.80
14727;DHT22;7454;51.256;8.176;2023-07-13T04:23:37;14.00;69.80
14727;DHT22;7454;51.256;8.176;2023-07-13T04:26:03;14.30;70.00
14727;DHT22;7454;51.256;8.176;2023-07-13T04:28:29;14.20;69.90
14727;DHT22;7454;51.256;8.176;2023-07-13T04:30:55;14.30;69.90
14727;DHT22;7454;51.256;8.176;2023-07-13T04:33:21;14.30;69.80
14727;DHT22;7454;51.256;8.176;2023-07-13T04:35:51;14.40;69.80
14727;DHT22;7454;51.256;8.176;2023-07-13T04:38:22;14.50;69.80
14727;DHT22;7454;51.256;8.176;2023-07-13T04:40:49;14.50;69.80
14727;DHT22;7454;51.256;8.176;2023-07-13T04:43:16;14.60;69.80
14727;DHT22;7454;51.256;8.176;2023-07-13T04:45:42;14.70;69.90
14727;DHT22;7454;51.256;8.176;2023-07-13T04:48:07;14.70;69.80
14727;DHT22;7454;51.256;8.176;2023-07-13T04:50:35;14.90;69.90
14727;DHT22;7454;51.256;8.176;2023-07-13T04:53:01;14.80;69.80
14727;DHT22;7454;51.256;8.176;2023-07-13T04:55:28;14.90;69.80
14727;DHT22;7454;51.256;8.176;2023-07-13T04:57:56;14.90;69.80
14727;DHT22;7454;51.256;8.176;2023-07-13T05:00:24;15.00;69.80
14727;DHT22;7454;51.256;8.176;2023-07-13T05:02:50;15.10;69.80
14727;DHT22;7454;51.256;8.176;2023-07-13T05:05:16;15.10;69.70
14727;DHT22;7454;51.256;8.176;2023-07-13T05:07:42;15.10;69.70
14727;DHT22;7454;51.256;8.176;2023-07-13T05:10:07;15.10;69.80
14727;DHT22;7454;51.256;8.176;2023-07-13T05:12:33;15.20;69.80
14727;DHT22;7454;51.256;8.176;2023-07-13T05:14:59;15.30;69.80
14727;DHT22;7454;51.256;8.176;2023-07-13T05:17:25;15.40;69.80
14727;DHT22;7454;51.256;8.176;2023-07-13T05:19:50;15.40;69.80
14727;DHT22;7454;51.256;8.176;2023-07-13T05:22:16;15.60;69.90
14727;DHT22;7454;51.256;8.176;2023-07-13T05:24:41;15.50;69.90
14727;DHT22;7454;51.256;8.176;2023-07-13T05:27:07;15.60;69.80
14727;DHT22;7454;51.256;8.176;2023-07-13T05:29:33;15.50;69.80
14727;DHT22;7454;51.256;8.176;2023-07-13T05:31:58;15.50;69.90
14727;DHT22;7454;51.256;8.176;2023-07-13T05:34:24;15.60;69.70
14727;DHT22;7454;51.256;8.176;2023-07-13T05:36:50;15.60;69.70
14727;DHT22;7454;51.256;8.176;2023-07-13T05:39:16;15.60;69.80
14727;DHT22;7454;51.256;8.176;2023-07-13T05:41:42;15.70;69.80
14727;DHT22;7454;51.256;8.176;2023-07-13T05:44:08;15.60;69.70
14727;DHT22;7454;51.256;8.176;2023-07-13T05:46:33;15.70;69.60
14727;DHT22;7454;51.256;8.176;2023-07-13T05:48:59;15.80;69.80
14727;DHT22;7454;51.256;8.176;2023-07-13T05:51:25;15.80;69.70
14727;DHT22;7454;51.256;8.176;2023-07-13T05:53:51;15.90;69.70
14727;DHT22;7454;51.256;8.176;2023-07-13T05:56:16;15.90;69.70
14727;DHT22;7454;51.256;8.176;2023-07-13T05:58:42;15.80;69.70
14727;DHT22;7454;51.256;8.176;2023-07-13T06:01:12;16.00;70.00
14727;DHT22;7454;51.256;8.176;2023-07-13T06:03:38;16.10;69.90
14727;DHT22;7454;51.256;8.176;2023-07-13T06:06:04;16.00;69.70
14727;DHT22;7454;51.256;8.176;2023-07-13T06:08:31;16.20;69.70
14727;DHT22;7454;51.256;8.176;2023-07-13T06:11:07;16.20;69.70
14727;DHT22;7454;51.256;8.176;2023-07-13T06:13:35;16.30;69.70
14727;DHT22;7454;51.256;8.176;2023-07-13T06:16:01;16.40;69.70
14727;DHT22;7454;51.256;8.176;2023-07-13T06:18:30;16.40;69.80
14727;DHT22;7454;51.256;8.176;2023-07-13T06:20:57;16.40;69.60
14727;DHT22;7454;51.256;8.176;2023-07-13T06:23:23;16.40;69.70
14727;DHT22;7454;51.256;8.176;2023-07-13T06:25:49;16.50;69.80
14727;DHT22;7454;51.256;8.176;2023-07-13T06:28:14;16.50;69.80
14727;DHT22;7454;51.256;8.176;2023-07-13T06:30:40;16.60;69.60
14727;DHT22;7454;51.256;8.176;2023-07-13T06:33:06;16.60;69.50
14727;DHT22;7454;51.256;8.176;2023-07-13T06:35:31;16.60;69.70
14727;DHT22;7454;51.256;8.176;2023-07-13T06:37:57;16.50;69.80
14727;DHT22;7454;51.256;8.176;2023-07-13T06:40:23;16.70;69.80
14727;DHT22;7454;51.256;8.176;2023-07-13T06:42:48;16.80;69.90
14727;DHT22;7454;51.256;8.176;2023-07-13T06:45:14;16.90;69.90
14727;DHT22;7454;51.256;8.176;2023-07-13T06:47:40;17.00;69.80
14727;DHT22;7454;51.256;8.176;2023-07-13T06:50:05;17.00;69.80
14727;DHT22;7454;51.256;8.176;2023-07-13T06:52:31;17.20;69.70
14727;DHT22;7454;51.256;8.176;2023-07-13T06:54:57;17.30;69.70
14727;DHT22;7454;51.256;8.176;2023-07-13T06:57:23;17.40;69.70
14727;DHT22;7454;51.256;8.176;2023-07-13T06:59:48;17.60;69.60
14727;DHT22;7454;51.256;8.176;2023-07-13T07:02:14;17.70;69.70
14727;DHT22;7454;51.256;8.176;2023-07-13T07:04:39;17.70;69.70
14727;DHT22;7454;51.256;8.176;2023-07-13T07:07:05;17.80;69.60
14727;DHT22;7454;51.256;8.176;2023-07-13T07:09:31;17.90;69.60
14727;DHT22;7454;51.256;8.176;2023-07-13T07:11:56;18.00;69.70
14727;DHT22;7454;51.256;8.176;2023-07-13T07:14:22;18.00;69.70
14727;DHT22;7454;51.256;8.176;2023-07-13T07:16:49;18.10;69.70
14727;DHT22;7454;51.256;8.176;2023-07-13T07:19:15;18.20;69.70
14727;DHT22;7454;51.256;8.176;2023-07-13T07:21:41;18.20;69.60
14727;DHT22;7454;51.256;8.176;2023-07-13T07:24:06;18.20;69.60
14727;DHT22;7454;51.256;8.176;2023-07-13T07:26:32;18.30;69.80
14727;DHT22;7454;51.256;8.176;2023-07-13T07:28:58;18.60;69.70
14727;DHT22;7454;51.256;8.176;2023-07-13T07:31:24;18.40;69.70
14727;DHT22;7454;51.256;8.176;2023-07-13T07:33:50;18.70;69.70
14727;DHT22;7454;51.256;8.176;2023-07-13T07:36:16;18.70;69.60
14727;DHT22;7454;51.256;8.176;2023-07-13T07:38:42;19.00;69.80
14727;DHT22;7454;51.256;8.176;2023-07-13T07:41:08;18.90;69.70
14727;DHT22;7454;51.256;8.176;2023-07-13T07:43:34;19.10;69.50
14727;DHT22;7454;51.256;8.176;2023-07-13T07:46:00;19.20;69.80
14727;DHT22;7454;51.256;8.176;2023-07-13T07:48:26;19.30;69.80
14727;DHT22;7454;51.256;8.176;2023-07-13T07:50:51;19.40;69.80
14727;DHT22;7454;51.256;8.176;2023-07-13T07:53:17;19.60;69.50
14727;DHT22;7454;51.256;8.176;2023-07-13T07:55:43;19.70;69.50
14727;DHT22;7454;51.256;8.176;2023-07-13T07:58:08;19.70;69.30
14727;DHT22;7454;51.256;8.176;2023-07-13T08:00:34;19.70;69.40
14727;DHT22;7454;51.256;8.176;2023-07-13T08:03:00;19.80;69.40
14727;DHT22;7454;51.256;8.176;2023-07-13T08:05:26;19.90;69.60
14727;DHT22;7454;51.256;8.176;2023-07-13T08:07:52;19.90;69.30
14727;DHT22;7454;51.256;8.176;2023-07-13T08:10:18;19.90;69.60
14727;DHT22;7454;51.256;8.176;2023-07-13T08:12:44;19.80;69.20
14727;DHT22;7454;51.256;8.176;2023-07-13T08:15:10;19.80;69.30
14727;DHT22;7454;51.256;8.176;2023-07-13T08:17:38;19.70;69.30
14727;DHT22;7454;51.256;8.176;2023-07-13T08:20:03;19.70;69.50
14727;DHT22;7454;51.256;8.176;2023-07-13T08:22:29;19.80;69.50
14727;DHT22;7454;51.256;8.176;2023-07-13T08:24:55;19.90;69.50
14727;DHT22;7454;51.256;8.176;2023-07-13T08:27:24;19.90;69.30
14727;DHT22;7454;51.256;8.176;2023-07-13T08:29:51;20.00;69.30
14727;DHT22;7454;51.256;8.176;2023-07-13T08:32:17;20.00;69.40
14727;DHT22;7454;51.256;8.176;2023-07-13T08:34:43;20.20;69.40
14727;DHT22;7454;51.256;8.176;2023-07-13T08:37:09;20.20;69.20
14727;DHT22;7454;51.256;8.176;2023-07-13T08:39:35;20.30;69.00
14727;DHT22;7454;51.256;8.176;2023-07-13T08:42:02;20.30;69.20
14727;DHT22;7454;51.256;8.176;2023-07-13T08:47:37;20.40;69.30
14727;DHT22;7454;51.256;8.176;2023-07-13T08:50:05;20.40;69.20
14727;DHT22;7454;51.256;8.176;2023-07-13T08:52:37;20.50;69.20
14727;DHT22;7454;51.256;8.176;2023-07-13T08:55:15;20.60;69.00
14727;DHT22;7454;51.256;8.176;2023-07-13T08:57:48;20.50;69.10
14727;DHT22;7454;51.256;8.176;2023-07-13T09:00:19;20.50;68.80
14727;DHT22;7454;51.256;8.176;2023-07-13T09:02:46;20.50;69.00
14727;DHT22;7454;51.256;8.176;2023-07-13T09:05:25;20.50;69.10
14727;DHT22;7454;51.256;8.176;2023-07-13T09:10:36;20.50;68.80
14727;DHT22;7454;51.256;8.176;2023-07-13T09:15:55;20.60;68.90
14727;DHT22;7454;51.256;8.176;2023-07-13T09:21:03;20.50;69.10
14727;DHT22;7454;51.256;8.176;2023-07-13T09:23:31;20.40;68.50
14727;DHT22;7454;51.256;8.176;2023-07-13T09:26:02;20.40;68.50
14727;DHT22;7454;51.256;8.176;2023-07-13T09:28:33;20.40;68.50
14727;DHT22;7454;51.256;8.176;2023-07-13T09:31:10;20.50;68.70
14727;DHT22;7454;51.256;8.176;2023-07-13T09:33:39;20.50;68.50
14727;DHT22;7454;51.256;8.176;2023-07-13T09:36:46;20.60;68.80
14727;DHT22;7454;51.256;8.176;2023-07-13T09:39:05;20.70;68.50
14727;DHT22;7454;51.256;8.176;2023-07-13T09:44:27;20.90;68.40
14727;DHT22;7454;51.256;8.176;2023-07-13T09:46:56;21.00;68.50
14727;DHT22;7454;51.256;8.176;2023-07-13T09:49:40;21.00;68.40
14727;DHT22;7454;51.256;8.176;2023-07-13T09:52:07;20.90;68.30
14727;DHT22;7454;51.256;8.176;2023-07-13T09:54:36;20.80;68.50
14727;DHT22;7454;51.256;8.176;2023-07-13T09:57:03;20.70;68.10
14727;DHT22;7454;51.256;8.176;2023-07-13T09:59:41;20.70;68.30
14727;DHT22;7454;51.256;8.176;2023-07-13T10:02:32;20.50;68.30
14727;DHT22;7454;51.256;8.176;2023-07-13T10:05:00;20.60;68.50
14727;DHT22;7454;51.256;8.176;2023-07-13T10:07:30;20.60;68.60
14727;DHT22;7454;51.256;8.176;2023-07-13T10:09:57;20.60;68.60
14727;DHT22;7454;51.256;8.176;2023-07-13T10:12:26;20.60;68.40
14727;DHT22;7454;51.256;8.176;2023-07-13T10:14:57;20.50;68.40
14727;DHT22;7454;51.256;8.176;2023-07-13T10:17:29;20.60;68.30
14727;DHT22;7454;51.256;8.176;2023-07-13T10:20:03;20.50;68.50
14727;DHT22;7454;51.256;8.176;2023-07-13T10:22:37;20.50;68.20
14727;DHT22;7454;51.256;8.176;2023-07-13T10:25:13;20.40;68.10
14727;DHT22;7454;51.256;8.176;2023-07-13T10:27:41;20.40;68.10
14727;DHT22;7454;51.256;8.176;2023-07-13T10:32:53;20.30;68.20
14727;DHT22;7454;51.256;8.176;2023-07-13T10:35:23;20.30;68.10
14727;DHT22;7454;51.256;8.176;2023-07-13T10:38:32;20.30;68.30
14727;DHT22;7454;51.256;8.176;2023-07-13T10:40:40;20.30;68.20
14727;DHT22;7454;51.256;8.176;2023-07-13T10:43:18;20.40;68.20
14727;DHT22;7454;51.256;8.176;2023-07-13T10:45:46;20.60;68.20
14727;DHT22;7454;51.256;8.176;2023-07-13T10:48:15;20.60;68.20
14727;DHT22;7454;51.256;8.176;2023-07-13T10:50:41;20.80;68.40
14727;DHT22;7454;51.256;8.176;2023-07-13T10:58:23;20.90;68.30
14727;DHT22;7454;51.256;8.176;2023-07-13T11:01:07;21.00;68.20
14727;DHT22;7454;51.256;8.176;2023-07-13T11:08:55;21.10;67.60
14727;DHT22;7454;51.256;8.176;2023-07-13T11:18:48;21.30;67.80
14727;DHT22;7454;51.256;8.176;2023-07-13T11:21:23;21.20;67.80
14727;DHT22;7454;51.256;8.176;2023-07-13T11:23:52;21.30;68.00
14727;DHT22;7454;51.256;8.176;2023-07-13T11:32:01;21.40;67.70
14727;DHT22;7454;51.256;8.176;2023-07-13T11:34:37;21.50;67.90
14727;DHT22;7454;51.256;8.176;2023-07-13T11:37:08;21.60;67.90
14727;DHT22;7454;51.256;8.176;2023-07-13T11:39:36;21.60;67.80
14727;DHT22;7454;51.256;8.176;2023-07-13T11:42:05;21.60;68.20
14727;DHT22;7454;51.256;8.176;2023-07-13T11:44:41;21.70;67.80
14727;DHT22;7454;51.256;8.176;2023-07-13T11:47:11;21.70;67.70
14727;DHT22;7454;51.256;8.176;2023-07-13T11:49:43;21.70;67.70
14727;DHT22;7454;51.256;8.176;2023-07-13T11:52:22;21.80;67.90
14727;DHT22;7454;51.256;8.176;2023-07-13T11:54:50;21.80;67.80
14727;DHT22;7454;51.256;8.176;2023-07-13T11:57:28;21.90;67.80
14727;DHT22;7454;51.256;8.176;2023-07-13T11:59:54;21.90;67.50
14727;DHT22;7454;51.256;8.176;2023-07-13T12:02:26;21.90;67.40
14727;DHT22;7454;51.256;8.176;2023-07-13T12:04:54;22.00;67.50
14727;DHT22;7454;51.256;8.176;2023-07-13T12:07:20;22.00;67.50
14727;DHT22;7454;51.256;8.176;2023-07-13T12:09:45;22.00;67.20
14727;DHT22;7454;51.256;8.176;2023-07-13T12:12:17;22.00;67.00
14727;DHT22;7454;51.256;8.176;2023-07-13T12:14:44;22.00;67.10
14727;DHT22;7454;51.256;8.176;2023-07-13T12:17:18;22.00;67.20
14727;DHT22;7454;51.256;8.176;2023-07-13T12:19:45;22.00;67.30
14727;DHT22;7454;51.256;8.176;2023-07-13T12:22:12;22.00;67.40
14727;DHT22;7454;51.256;8.176;2023-07-13T12:24:39;21.90;67.30
14727;DHT22;7454;51.256;8.176;2023-07-13T12:27:06;22.00;67.30
14727;DHT22;7454;51.256;8.176;2023-07-13T12:29:50;22.10;67.60
14727;DHT22;7454;51.256;8.176;2023-07-13T12:32:36;22.20;67.30
14727;DHT22;7454;51.256;8.176;2023-07-13T12:35:16;22.20;67.30
14727;DHT22;7454;51.256;8.176;2023-07-13T12:37:42;22.20;67.00
14727;DHT22;7454;51.256;8.176;2023-07-13T12:40:15;22.20;67.10
14727;DHT22;7454;51.256;8.176;2023-07-13T12:42:45;22.20;66.90
14727;DHT22;7454;51.256;8.176;2023-07-13T12:47:52;22.30;67.20
14727;DHT22;7454;51.256;8.176;2023-07-13T12:50:21;22.20;67.40
14727;DHT22;7454;51.256;8.176;2023-07-13T12:52:54;22.20;67.10
14727;DHT22;7454;51.256;8.176;2023-07-13T12:55:25;22.20;67.20
14727;DHT22;7454;51.256;8.176;2023-07-13T12:57:51;22.30;67.10
14727;DHT22;7454;51.256;8.176;2023-07-13T13:02:46;22.30;67.30
14727;DHT22;7454;51.256;8.176;2023-07-13T13:05:15;22.30;67.30
14727;DHT22;7454;51.256;8.176;2023-07-13T13:07:40;22.30;67.40
14727;DHT22;7454;51.256;8.176;2023-07-13T13:10:13;22.20;66.70
14727;DHT22;7454;51.256;8.176;2023-07-13T13:12:39;22.20;66.70
14727;DHT22;7454;51.256;8.176;2023-07-13T13:15:08;22.10;66.60
14727;DHT22;7454;51.256;8.176;2023-07-13T13:17:35;22.10;67.00
14727;DHT22;7454;51.256;8.176;2023-07-13T13:20:01;22.20;66.80
14727;DHT22;7454;51.256;8.176;2023-07-13T13:22:27;22.30;66.90
14727;DHT22;7454;51.256;8.176;2023-07-13T13:24:52;22.30;66.70
14727;DHT22;7454;51.256;8.176;2023-07-13T13:27:19;22.30;66.70
14727;DHT22;7454;51.256;8.176;2023-07-13T13:29:46;22.40;66.40
14727;DHT22;7454;51.256;8.176;2023-07-13T13:32:13;22.30;66.30
14727;DHT22;7454;51.256;8.176;2023-07-13T13:34:40;22.30;66.40
14727;DHT22;7454;51.256;8.176;2023-07-13T13:37:12;22.30;66.30
14727;DHT22;7454;51.256;8.176;2023-07-13T13:39:43;22.30;66.50
14727;DHT22;7454;51.256;8.176;2023-07-13T13:42:09;22.20;66.60
14727;DHT22;7454;51.256;8.176;2023-07-13T13:44:35;22.30;66.50
14727;DHT22;7454;51.256;8.176;2023-07-13T13:47:01;22.30;66.60
14727;DHT22;7454;51.256;8.176;2023-07-13T13:49:27;22.30;66.50
14727;DHT22;7454;51.256;8.176;2023-07-13T13:51:55;22.40;66.70
14727;DHT22;7454;51.256;8.176;2023-07-13T13:54:21;22.40;66.70
14727;DHT22;7454;51.256;8.176;2023-07-13T13:56:49;22.40;66.60
14727;DHT22;7454;51.256;8.176;2023-07-13T13:59:16;22.40;66.60
14727;DHT22;7454;51.256;8.176;2023-07-13T14:01:42;22.40;66.60
14727;DHT22;7454;51.256;8.176;2023-07-13T14:04:13;22.40;66.50
14727;DHT22;7454;51.256;8.176;2023-07-13T14:06:41;22.40;66.40
14727;DHT22;7454;51.256;8.176;2023-07-13T14:09:10;22.40;66.00
14727;DHT22;7454;51.256;8.176;2023-07-13T14:11:38;22.30;65.80
14727;DHT22;7454;51.256;8.176;2023-07-13T14:14:04;22.20;66.30
14727;DHT22;7454;51.256;8.176;2023-07-13T14:16:30;22.30;66.50
14727;DHT22;7454;51.256;8.176;2023-07-13T14:18:57;22.30;66.70
14727;DHT22;7454;51.256;8.176;2023-07-13T14:21:25;22.40;66.80
14727;DHT22;7454;51.256;8.176;2023-07-13T14:23:52;22.40;66.60
14727;DHT22;7454;51.256;8.176;2023-07-13T14:26:28;22.40;66.60
14727;DHT22;7454;51.256;8.176;2023-07-13T14:28:58;22.40;66.80
14727;DHT22;7454;51.256;8.176;2023-07-13T14:31:26;22.40;66.80
14727;DHT22;7454;51.256;8.176;2023-07-13T14:33:54;22.40;66.80
14727;DHT22;7454;51.256;8.176;2023-07-13T14:36:27;22.30;66.70
14727;DHT22;7454;51.256;8.176;2023-07-13T14:38:56;22.40;66.90
14727;DHT22;7454;51.256;8.176;2023-07-13T14:41:22;22.40;67.00
14727;DHT22;7454;51.256;8.176;2023-07-13T14:43:48;22.40;66.80
14727;DHT22;7454;51.256;8.176;2023-07-13T14:46:26;22.40;66.70
14727;DHT22;7454;51.256;8.176;2023-07-13T14:48:59;22.40;66.80
14727;DHT22;7454;51.256;8.176;2023-07-13T14:51:29;22.50;66.90
14727;DHT22;7454;51.256;8.176;2023-07-13T14:53:55;22.40;66.80
14727;DHT22;7454;51.256;8.176;2023-07-13T14:56:20;22.30;66.70
14727;DHT22;7454;51.256;8.176;2023-07-13T14:58:46;22.40;66.80
14727;DHT22;7454;51.256;8.176;2023-07-13T15:01:12;22.40;66.70
14727;DHT22;7454;51.256;8.176;2023-07-13T15:03:44;22.30;66.70
14727;DHT22;7454;51.256;8.176;2023-07-13T15:06:12;22.40;66.60
14727;DHT22;7454;51.256;8.176;2023-07-13T15:08:38;22.30;66.70
14727;DHT22;7454;51.256;8.176;2023-07-13T15:11:09;22.30;66.60
14727;DHT22;7454;51.256;8.176;2023-07-13T15:13:38;22.20;66.50
14727;DHT22;7454;51.256;8.176;2023-07-13T15:16:09;22.10;66.50
14727;DHT22;7454;51.256;8.176;2023-07-13T15:18:40;22.10;66.60
14727;DHT22;7454;51.256;8.176;2023-07-13T15:21:08;22.00;66.60
14727;DHT22;7454;51.256;8.176;2023-07-13T15:23:35;22.10;66.80
14727;DHT22;7454;51.256;8.176;2023-07-13T15:26:01;22.10;66.80
14727;DHT22;7454;51.256;8.176;2023-07-13T15:28:28;22.00;66.70
14727;DHT22;7454;51.256;8.176;2023-07-13T15:30:54;22.00;66.70
14727;DHT22;7454;51.256;8.176;2023-07-13T15:33:27;22.00;66.90
14727;DHT22;7454;51.256;8.176;2023-07-13T15:35:54;22.10;66.80
14727;DHT22;7454;51.256;8.176;2023-07-13T15:40:51;22.10;66.90
14727;DHT22;7454;51.256;8.176;2023-07-13T15:43:18;22.00;66.50
14727;DHT22;7454;51.256;8.176;2023-07-13T15:45:44;22.00;66.70
14727;DHT22;7454;51.256;8.176;2023-07-13T15:48:13;21.90;67.00
14727;DHT22;7454;51.256;8.176;2023-07-13T15:50:44;21.80;67.40
14727;DHT22;7454;51.256;8.176;2023-07-13T15:53:13;21.60;67.50
14727;DHT22;7454;51.256;8.176;2023-07-13T15:55:41;21.30;67.50
14727;DHT22;7454;51.256;8.176;2023-07-13T15:58:09;21.20;67.60
14727;DHT22;7454;51.256;8.176;2023-07-13T16:00:36;21.00;67.70
14727;DHT22;7454;51.256;8.176;2023-07-13T16:03:02;20.90;67.70
14727;DHT22;7454;51.256;8.176;2023-07-13T16:05:28;20.60;67.80
14727;DHT22;7454;51.256;8.176;2023-07-13T16:07:54;20.40;67.80
14727;DHT22;7454;51.256;8.176;2023-07-13T16:10:22;20.10;68.00
14727;DHT22;7454;51.256;8.176;2023-07-13T16:12:52;19.90;68.50
14727;DHT22;7454;51.256;8.176;2023-07-13T16:15:20;19.70;69.00
14727;DHT22;7454;51.256;8.176;2023-07-13T16:17:47;19.50;69.00
14727;DHT22;7454;51.256;8.176;2023-07-13T16:20:14;19.30;69.80
14727;DHT22;7454;51.256;8.176;2023-07-13T16:22:41;19.10;70.00
14727;DHT22;7454;51.256;8.176;2023-07-13T16:25:13;18.90;70.20
14727;DHT22;7454;51.256;8.176;2023-07-13T16:27:40;18.70;69.90
14727;DHT22;7454;51.256;8.176;2023-07-13T16:30:15;18.60;69.60
14727;DHT22;7454;51.256;8.176;2023-07-13T16:32:55;18.60;70.00
14727;DHT22;7454;51.256;8.176;2023-07-13T16:35:23;18.50;69.90
14727;DHT22;7454;51.256;8.176;2023-07-13T16:37:50;18.40;70.10